Time;durP1;ratioP1;P1;durP2;ratioP2;P2;SDS_P1;SDS_P2;PMS_P1;PMS_P2;Temp;Humidity;BMP_temperature;BMP_pressure;BME280_temperature;BME280_humidity;BME280_pressure;Samples;Min_cycle;Max_cycle;Signal;HPM_P1;HPM_P2
2023/08/29 00:01:37;;;;;;;2.75;1.27;;;14.00;99.90;;;;;;5039355;28;38960;-72
2023/08/29 00:04:03;;;;;;;1.58;1.35;;;14.00;99.90;;;;;;5032064;28;37310;-73
2023/08/29 00:06:29;;;;;;;3.50;1.25;;;13.90;99.90;;;;;;5043508;28;37828;-72
2023/08/29 00:08:55;;;;;;;6.05;1.48;;;13.90;99.90;;;;;;5046618;28;37665;-72
2023/08/29 00:11:21;;;;;;;3.53;1.48;;;13.90;99.90;;;;;;5046975;28;39622;-72
2023/08/29 00:13:48;;;;;;;1.52;1.40;;;13.90;99.90;;;;;;5037603;28;37354;-72
2023/08/29 00:16:16;;;;;;;2.05;1.25;;;13.80;99.90;;;;;;5040120;28;38918;-72
2023/08/29 00:18:43;;;;;;;1.38;1.27;;;13.80;99.90;;;;;;5032399;28;37256;-72
2023/08/29 00:21:09;;;;;;;2.42;1.42;;;13.80;99.90;;;;;;5035578;28;38793;-73
2023/08/29 00:23:35;;;;;;;1.65;1.40;;;13.80;99.90;;;;;;5037822;28;37262;-72
2023/08/29 00:26:02;;;;;;;3.42;1.23;;;13.80;99.90;;;;;;5043879;28;37915;-73
2023/08/29 00:28:28;;;;;;;1.80;1.20;;;13.80;99.90;;;;;;5047003;28;37021;-73
2023/08/29 00:30:57;;;;;;;1.67;1.20;;;13.80;99.90;;;;;;5035590;28;38579;-72
2023/08/29 00:33:23;;;;;;;1.92;1.42;;;13.70;99.90;;;;;;5037066;28;38372;-72
2023/08/29 00:35:49;;;;;;;2.70;1.35;;;13.70;99.90;;;;;;5036949;28;37653;-72
2023/08/29 00:38:15;;;;;;;2.90;1.00;;;13.70;99.90;;;;;;5042551;28;36992;-72
2023/08/29 00:40:42;;;;;;;2.45;1.40;;;13.70;99.90;;;;;;5034901;28;38129;-73
2023/08/29 00:43:08;;;;;;;4.53;1.35;;;13.70;99.90;;;;;;5036122;28;37358;-72
2023/08/29 00:45:39;;;;;;;1.52;1.40;;;13.70;99.90;;;;;;5036084;28;37260;-72
2023/08/29 00:48:08;;;;;;;2.20;1.80;;;13.70;99.90;;;;;;5029278;28;38815;-73
2023/08/29 00:50:35;;;;;;;3.22;1.30;;;13.60;99.90;;;;;;5042148;28;37730;-73
2023/08/29 00:53:04;;;;;;;3.25;1.50;;;13.60;99.90;;;;;;5049996;28;39574;-72
2023/08/29 00:55:33;;;;;;;2.08;1.27;;;13.60;99.90;;;;;;5040136;28;48560;-72
2023/08/29 00:58:01;;;;;;;1.65;1.27;;;13.50;99.90;;;;;;5044045;28;38222;-73
2023/08/29 01:03:11;;;;;;;1.33;1.20;;;13.60;99.90;;;;;;5329840;22;20060;-75
2023/08/29 01:05:37;;;;;;;4.65;1.42;;;13.60;99.90;;;;;;5017429;28;35913;-75
2023/08/29 01:08:04;;;;;;;1.90;1.30;;;13.50;99.90;;;;;;5025509;28;37879;-75
2023/08/29 01:11:00;;;;;;;3.38;1.60;;;13.50;99.90;;;;;;5016634;28;38518;-75
2023/08/29 01:13:47;;;;;;;1.50;1.30;;;13.50;99.90;;;;;;5021059;28;37993;-74
2023/08/29 01:16:16;;;;;;;3.20;1.33;;;13.40;99.90;;;;;;5020474;28;37478;-75
2023/08/29 01:18:45;;;;;;;2.45;1.15;;;13.40;99.90;;;;;;5026511;28;36908;-75
2023/08/29 01:21:29;;;;;;;1.95;1.35;;;13.40;99.90;;;;;;5016625;28;37737;-75
2023/08/29 01:24:07;;;;;;;2.05;1.45;;;13.40;99.90;;;;;;5022947;28;39357;-76
2023/08/29 01:26:34;;;;;;;3.67;1.27;;;13.40;99.90;;;;;;5021461;28;46906;-75
2023/08/29 01:29:02;;;;;;;3.47;1.55;;;13.30;99.90;;;;;;5021447;28;36366;-75
2023/08/29 01:31:29;;;;;;;2.70;1.40;;;13.30;99.90;;;;;;5018430;28;47224;-74
2023/08/29 01:33:57;;;;;;;1.38;1.27;;;13.30;99.90;;;;;;5035576;28;38679;-75
2023/08/29 01:36:27;;;;;;;2.40;1.40;;;13.30;99.90;;;;;;5016017;28;39010;-73
2023/08/29 01:38:54;;;;;;;4.05;1.50;;;13.20;99.90;;;;;;5020399;28;35819;-74
2023/08/29 01:41:20;;;;;;;2.63;1.40;;;13.20;99.90;;;;;;5021890;28;41560;-73
2023/08/29 01:43:46;;;;;;;2.83;1.67;;;13.20;99.90;;;;;;5029570;28;37240;-73
2023/08/29 01:46:12;;;;;;;3.00;1.20;;;13.20;99.90;;;;;;5020999;28;38361;-73
2023/08/29 01:48:39;;;;;;;2.13;1.40;;;13.20;99.90;;;;;;5019699;28;36003;-74
2023/08/29 01:51:05;;;;;;;2.47;1.48;;;13.20;99.90;;;;;;5018318;28;39975;-75
2023/08/29 01:53:31;;;;;;;1.67;1.27;;;13.20;99.90;;;;;;5019324;28;37259;-74
2023/08/29 01:55:59;;;;;;;2.17;1.52;;;13.20;99.90;;;;;;5018420;28;37011;-75
2023/08/29 01:58:26;;;;;;;4.13;1.63;;;13.20;99.90;;;;;;5018332;28;36075;-74
2023/08/29 02:00:53;;;;;;;1.63;1.50;;;13.20;99.90;;;;;;5021895;28;38465;-74
2023/08/29 02:03:21;;;;;;;2.55;1.60;;;13.20;99.90;;;;;;5019801;28;39138;-74
2023/08/29 02:05:48;;;;;;;4.38;1.50;;;13.20;99.90;;;;;;5020105;28;37635;-75
2023/08/29 02:08:14;;;;;;;2.25;1.60;;;13.10;99.90;;;;;;5017816;28;37036;-74
2023/08/29 02:10:40;;;;;;;3.13;1.40;;;13.10;99.90;;;;;;5025531;28;36746;-75
2023/08/29 02:13:06;;;;;;;1.73;1.55;;;13.10;99.90;;;;;;5015776;28;37867;-74
2023/08/29 02:15:32;;;;;;;3.00;1.40;;;13.20;99.90;;;;;;5018426;28;36856;-74
2023/08/29 02:17:58;;;;;;;1.95;1.27;;;13.20;99.90;;;;;;5023099;28;37001;-73
2023/08/29 02:20:25;;;;;;;2.30;1.55;;;13.20;99.90;;;;;;5016841;28;38992;-73
2023/08/29 02:22:51;;;;;;;2.05;1.50;;;13.20;99.90;;;;;;5022047;28;37327;-73
2023/08/29 02:25:17;;;;;;;2.28;1.63;;;13.10;99.90;;;;;;5019318;28;37059;-74
2023/08/29 02:27:43;;;;;;;2.35;1.85;;;13.20;99.90;;;;;;5023447;28;37035;-74
2023/08/29 02:30:10;;;;;;;1.50;1.40;;;13.20;99.90;;;;;;5019763;28;37855;-74
2023/08/29 02:32:38;;;;;;;1.75;1.52;;;13.20;99.90;;;;;;5019361;28;37361;-73
2023/08/29 02:35:05;;;;;;;2.53;1.80;;;13.30;99.90;;;;;;5032901;28;38682;-74
2023/08/29 02:37:32;;;;;;;2.40;1.60;;;13.20;99.90;;;;;;5020264;28;47515;-78
2023/08/29 02:39:59;;;;;;;3.72;1.80;;;13.20;99.90;;;;;;5014142;28;39714;-75
2023/08/29 02:42:25;;;;;;;2.00;1.50;;;13.30;99.90;;;;;;5017776;28;38653;-75
2023/08/29 02:44:51;;;;;;;2.88;2.00;;;13.30;99.90;;;;;;5017924;28;37284;-74
2023/08/29 02:47:18;;;;;;;2.45;1.70;;;13.40;99.90;;;;;;5018047;28;36294;-75
2023/08/29 02:49:44;;;;;;;2.75;1.75;;;13.40;99.90;;;;;;5017914;28;39391;-74
2023/08/29 02:52:10;;;;;;;2.63;1.60;;;13.40;99.90;;;;;;5031747;28;37402;-75
2023/08/29 02:54:36;;;;;;;2.20;1.27;;;13.40;99.90;;;;;;5016636;28;36905;-75
2023/08/29 02:57:03;;;;;;;2.42;1.40;;;13.50;99.90;;;;;;5017985;28;36165;-75
2023/08/29 02:59:30;;;;;;;3.17;1.90;;;13.50;99.90;;;;;;5018881;28;38763;-74
2023/08/29 03:01:56;;;;;;;2.58;1.80;;;13.50;99.90;;;;;;5020011;28;37448;-75
2023/08/29 03:04:23;;;;;;;2.70;1.60;;;13.60;99.90;;;;;;5029224;28;36982;-76
2023/08/29 03:06:51;;;;;;;2.08;1.58;;;13.70;99.90;;;;;;5019373;28;37101;-78
2023/08/29 03:09:17;;;;;;;1.60;1.50;;;13.70;99.90;;;;;;5018627;28;39630;-76
2023/08/29 03:11:43;;;;;;;1.98;1.45;;;13.80;99.90;;;;;;5017156;28;37335;-76
2023/08/29 03:14:09;;;;;;;3.78;1.70;;;13.80;99.90;;;;;;5018100;28;39190;-75
2023/08/29 03:16:35;;;;;;;3.33;1.50;;;13.80;99.90;;;;;;5020433;28;36509;-76
2023/08/29 03:19:02;;;;;;;3.00;1.63;;;13.80;99.90;;;;;;5033239;28;39018;-75
2023/08/29 03:21:29;;;;;;;1.90;1.50;;;13.90;99.90;;;;;;5020458;28;38486;-76
2023/08/29 03:23:55;;;;;;;3.42;2.03;;;13.90;99.90;;;;;;5016705;28;37991;-76
2023/08/29 03:26:21;;;;;;;2.50;1.40;;;14.00;99.90;;;;;;5017464;28;37144;-75
2023/08/29 03:28:48;;;;;;;2.35;1.92;;;14.10;99.90;;;;;;5024257;28;38513;-76
2023/08/29 03:31:17;;;;;;;3.38;1.92;;;14.10;99.90;;;;;;5017937;28;37534;-75
2023/08/29 03:33:44;;;;;;;3.40;2.10;;;14.20;99.90;;;;;;5021048;28;37016;-76
2023/08/29 03:36:11;;;;;;;4.50;2.30;;;14.20;99.90;;;;;;5021179;28;37006;-75
2023/08/29 03:38:40;;;;;;;3.22;2.35;;;14.30;99.90;;;;;;5024019;28;38692;-75
2023/08/29 03:41:07;;;;;;;4.65;2.20;;;14.30;99.90;;;;;;5013811;28;37723;-76
2023/08/29 03:43:34;;;;;;;6.13;2.80;;;14.40;99.90;;;;;;5015331;28;36940;-75
2023/08/29 03:46:02;;;;;;;3.22;2.70;;;14.40;99.90;;;;;;5018300;28;36980;-75
2023/08/29 03:48:30;;;;;;;4.72;2.75;;;14.50;99.90;;;;;;5018256;28;48480;-74
2023/08/29 03:50:58;;;;;;;4.68;2.65;;;14.50;99.90;;;;;;5016334;28;38242;-75
2023/08/29 03:53:24;;;;;;;2.13;1.88;;;14.50;99.90;;;;;;5013017;28;37838;-75
2023/08/29 03:55:50;;;;;;;3.10;2.17;;;14.60;99.90;;;;;;5014961;28;36073;-74
2023/08/29 03:58:17;;;;;;;2.95;2.25;;;14.60;99.90;;;;;;5017900;28;39333;-75
2023/08/29 04:00:43;;;;;;;2.72;2.28;;;14.60;99.90;;;;;;5016277;28;38267;-75
2023/08/29 04:03:10;;;;;;;4.60;2.17;;;14.60;99.90;;;;;;5014327;28;37982;-75
2023/08/29 04:05:37;;;;;;;2.50;2.30;;;14.60;99.90;;;;;;5016692;28;39474;-75
2023/08/29 04:08:05;;;;;;;3.67;2.20;;;14.60;99.90;;;;;;5017213;28;37535;-74
2023/08/29 04:10:39;;;;;;;2.53;1.90;;;14.60;99.90;;;;;;5035201;28;38987;-74
2023/08/29 04:13:06;;;;;;;3.28;2.00;;;14.70;99.90;;;;;;5017279;28;37852;-75
2023/08/29 04:15:36;;;;;;;2.70;1.80;;;14.70;99.90;;;;;;5017262;28;39666;-75
2023/08/29 04:18:03;;;;;;;4.95;2.38;;;14.70;99.90;;;;;;5016093;28;37585;-75
2023/08/29 04:20:30;;;;;;;2.38;2.17;;;14.70;99.90;;;;;;5017259;28;38488;-74
2023/08/29 04:22:58;;;;;;;2.65;2.30;;;14.70;99.90;;;;;;5012952;28;37356;-76
2023/08/29 04:25:27;;;;;;;3.53;2.63;;;14.70;99.90;;;;;;5023765;28;36263;-75
2023/08/29 04:27:53;;;;;;;2.28;2.08;;;14.70;99.90;;;;;;5017086;28;38681;-75
2023/08/29 04:30:20;;;;;;;4.10;2.50;;;14.80;99.90;;;;;;5018056;28;38681;-75
2023/08/29 04:32:52;;;;;;;3.78;2.50;;;14.80;99.90;;;;;;5015175;28;36404;-75
2023/08/29 04:35:19;;;;;;;2.70;2.20;;;14.70;99.90;;;;;;5018659;28;36250;-76
2023/08/29 04:37:48;;;;;;;3.63;2.58;;;14.70;99.90;;;;;;5012673;28;37801;-74
2023/08/29 04:40:16;;;;;;;2.63;2.17;;;14.70;99.90;;;;;;5012223;28;37181;-76
2023/08/29 04:42:43;;;;;;;4.97;2.75;;;14.80;99.90;;;;;;5021337;28;35932;-75
2023/08/29 04:45:10;;;;;;;4.90;2.35;;;14.70;99.90;;;;;;5017238;28;37402;-75
2023/08/29 04:47:37;;;;;;;3.05;2.50;;;14.70;99.90;;;;;;5018173;28;39933;-75
2023/08/29 04:50:03;;;;;;;3.25;2.90;;;14.70;99.90;;;;;;5017781;28;37392;-75
2023/08/29 04:52:30;;;;;;;3.38;2.85;;;14.70;99.90;;;;;;5016274;28;37464;-75
2023/08/29 04:54:56;;;;;;;4.03;2.75;;;14.80;99.90;;;;;;5015414;28;36765;-74
2023/08/29 04:57:22;;;;;;;3.13;2.60;;;14.80;99.90;;;;;;5012515;28;39733;-74
2023/08/29 04:59:49;;;;;;;4.85;3.10;;;14.80;99.90;;;;;;5015636;28;38105;-74
2023/08/29 05:02:16;;;;;;;2.58;2.38;;;14.80;99.90;;;;;;5017348;28;36783;-75
2023/08/29 05:04:42;;;;;;;4.53;3.28;;;14.80;99.90;;;;;;5016133;28;34774;-75
2023/08/29 05:07:09;;;;;;;3.90;3.17;;;14.80;99.90;;;;;;5014365;28;37790;-75
2023/08/29 05:09:36;;;;;;;5.47;3.60;;;14.80;99.90;;;;;;5013800;28;38273;-76
2023/08/29 05:12:02;;;;;;;4.43;3.35;;;14.80;99.90;;;;;;5023342;28;37447;-76
2023/08/29 05:14:28;;;;;;;3.40;3.10;;;14.90;99.90;;;;;;5014994;28;48901;-75
2023/08/29 05:16:55;;;;;;;6.45;3.80;;;14.90;99.90;;;;;;5021314;28;38628;-75
2023/08/29 05:19:21;;;;;;;4.95;3.50;;;15.00;99.90;;;;;;5017886;28;39161;-75
2023/08/29 05:21:49;;;;;;;5.22;3.05;;;15.00;99.90;;;;;;5013895;28;36767;-75
2023/08/29 05:24:15;;;;;;;4.10;3.40;;;15.00;99.90;;;;;;5018154;28;37250;-75
2023/08/29 05:26:41;;;;;;;7.03;3.22;;;15.00;99.90;;;;;;5017857;28;38670;-75
2023/08/29 05:29:07;;;;;;;4.25;3.38;;;15.00;99.90;;;;;;5020798;28;37467;-77
2023/08/29 05:31:33;;;;;;;4.32;3.53;;;15.00;99.90;;;;;;5016928;28;38595;-74
2023/08/29 05:34:00;;;;;;;4.78;3.60;;;15.00;99.90;;;;;;5004243;28;35524;-75
2023/08/29 05:36:26;;;;;;;8.07;3.65;;;14.90;99.90;;;;;;5016426;28;38157;-74
2023/08/29 05:38:52;;;;;;;3.65;3.30;;;15.00;99.90;;;;;;5014567;28;38917;-74
2023/08/29 05:41:18;;;;;;;4.80;3.42;;;15.00;99.90;;;;;;5012305;28;38175;-75
2023/08/29 05:43:44;;;;;;;4.50;3.88;;;15.00;99.90;;;;;;5002788;28;34789;-76
2023/08/29 05:46:10;;;;;;;5.13;3.55;;;15.00;99.90;;;;;;5005469;28;37548;-75
2023/08/29 05:48:36;;;;;;;4.30;3.38;;;14.90;99.90;;;;;;5001757;28;38203;-75
2023/08/29 05:51:02;;;;;;;6.03;3.80;;;15.00;99.90;;;;;;5000594;28;37041;-75
2023/08/29 05:53:29;;;;;;;4.63;3.67;;;14.90;99.90;;;;;;5003737;28;37458;-75
2023/08/29 05:55:55;;;;;;;7.22;3.78;;;14.90;99.90;;;;;;5003229;28;38699;-76
2023/08/29 05:58:21;;;;;;;4.72;4.05;;;15.00;99.90;;;;;;4998529;28;38281;-76
2023/08/29 06:00:48;;;;;;;4.35;3.80;;;15.00;99.90;;;;;;5001874;28;37940;-75
2023/08/29 06:03:14;;;;;;;5.93;4.10;;;14.90;99.90;;;;;;5002592;28;37439;-75
2023/08/29 06:05:41;;;;;;;3.88;3.47;;;14.90;99.90;;;;;;5013354;28;38567;-76
2023/08/29 06:08:08;;;;;;;3.72;3.42;;;14.90;99.90;;;;;;4998216;28;37869;-75
2023/08/29 06:10:34;;;;;;;4.95;3.50;;;14.90;99.90;;;;;;4996983;28;37485;-76
2023/08/29 06:13:00;;;;;;;3.60;3.30;;;14.90;99.90;;;;;;5005601;28;36961;-74
2023/08/29 06:15:27;;;;;;;4.35;3.65;;;14.90;99.90;;;;;;5008780;28;37588;-77
2023/08/29 06:17:54;;;;;;;4.82;3.40;;;14.90;99.90;;;;;;5007919;28;38774;-77
2023/08/29 06:20:20;;;;;;;4.82;3.80;;;15.00;99.90;;;;;;5008383;28;36730;-77
2023/08/29 06:22:46;;;;;;;4.32;3.50;;;15.00;99.90;;;;;;5008178;28;36170;-76
2023/08/29 06:25:12;;;;;;;4.05;3.15;;;14.90;99.90;;;;;;5000817;28;40068;-75
2023/08/29 06:27:39;;;;;;;4.03;2.92;;;14.90;99.90;;;;;;5006019;28;38289;-76
2023/08/29 06:30:12;;;;;;;5.20;3.10;;;15.00;99.90;;;;;;5002675;28;36900;-77
2023/08/29 06:32:39;;;;;;;4.80;2.63;;;15.00;99.90;;;;;;5022500;28;48250;-79
2023/08/29 06:35:07;;;;;;;3.88;2.80;;;15.00;99.90;;;;;;5006329;28;38739;-77
2023/08/29 06:37:33;;;;;;;4.30;2.88;;;15.00;99.90;;;;;;5001269;28;37417;-75
2023/08/29 06:40:00;;;;;;;4.10;3.20;;;15.10;99.90;;;;;;5007491;28;37562;-75
2023/08/29 06:42:26;;;;;;;4.60;3.35;;;15.20;99.90;;;;;;5003047;28;37958;-76
2023/08/29 06:44:57;;;;;;;5.35;3.80;;;15.20;99.90;;;;;;5006235;28;37748;-74
2023/08/29 06:47:23;;;;;;;5.65;3.95;;;15.20;99.90;;;;;;5008431;28;37401;-74
2023/08/29 06:49:49;;;;;;;7.00;4.55;;;15.30;99.90;;;;;;5010826;28;37441;-74
2023/08/29 06:52:15;;;;;;;5.45;4.65;;;15.40;99.90;;;;;;5006318;28;36910;-75
2023/08/29 06:54:41;;;;;;;8.75;5.07;;;15.40;99.90;;;;;;5006929;28;38319;-76
2023/08/29 06:57:07;;;;;;;7.85;6.43;;;15.50;99.90;;;;;;5008593;28;37730;-76
2023/08/29 06:59:33;;;;;;;11.55;6.70;;;15.60;99.90;;;;;;5003341;28;38553;-74
2023/08/29 07:01:59;;;;;;;8.32;6.72;;;15.70;99.90;;;;;;5004649;28;36872;-73
2023/08/29 07:04:25;;;;;;;12.35;6.47;;;15.80;99.90;;;;;;5009223;28;39667;-73
2023/08/29 07:06:51;;;;;;;10.02;6.80;;;15.80;99.90;;;;;;5003845;28;38679;-75
2023/08/29 07:09:17;;;;;;;9.82;7.32;;;16.00;99.90;;;;;;5005334;28;37916;-73
2023/08/29 07:11:43;;;;;;;12.15;7.32;;;16.10;99.90;;;;;;5005223;28;38123;-74
2023/08/29 07:14:10;;;;;;;8.57;7.57;;;16.10;99.90;;;;;;5005046;28;40568;-74
2023/08/29 07:16:36;;;;;;;11.27;7.78;;;16.20;99.90;;;;;;5011654;28;39119;-74
2023/08/29 07:19:02;;;;;;;13.48;8.80;;;16.40;99.90;;;;;;5003248;28;37263;-74
2023/08/29 07:21:28;;;;;;;10.43;7.72;;;16.50;99.90;;;;;;5008701;28;36287;-74
2023/08/29 07:23:54;;;;;;;9.98;7.80;;;16.50;99.90;;;;;;5004939;28;40071;-74
2023/08/29 07:26:21;;;;;;;11.43;7.95;;;16.70;99.90;;;;;;5003407;28;38681;-73
2023/08/29 07:28:47;;;;;;;9.30;6.53;;;16.70;99.90;;;;;;5004645;28;38530;-74
2023/08/29 07:31:13;;;;;;;8.88;7.20;;;16.70;99.90;;;;;;5021112;28;35962;-74
2023/08/29 07:33:39;;;;;;;10.35;6.35;;;16.80;99.90;;;;;;5009905;28;38257;-72
2023/08/29 07:36:05;;;;;;;7.57;6.07;;;17.00;99.90;;;;;;5003828;28;37601;-74
2023/08/29 07:38:31;;;;;;;9.60;6.72;;;17.00;99.90;;;;;;5003028;28;36691;-74
2023/08/29 07:40:57;;;;;;;6.55;5.90;;;17.00;99.90;;;;;;5003317;28;36962;-74
2023/08/29 07:43:25;;;;;;;5.78;5.25;;;17.10;99.90;;;;;;5003328;28;38001;-75
2023/08/29 07:45:52;;;;;;;6.43;5.65;;;17.20;99.90;;;;;;5011018;28;38911;-74
2023/08/29 07:48:19;;;;;;;6.70;5.43;;;17.30;99.90;;;;;;5003513;28;37882;-74
2023/08/29 07:50:46;;;;;;;5.97;5.38;;;17.40;99.90;;;;;;5002422;28;37181;-74
2023/08/29 07:53:12;;;;;;;6.40;4.70;;;17.50;99.90;;;;;;5030108;28;39200;-74
2023/08/29 07:55:41;;;;;;;4.15;3.75;;;17.60;99.90;;;;;;5002013;28;37101;-74
2023/08/29 07:58:07;;;;;;;5.53;4.03;;;17.60;99.90;;;;;;5009441;28;38226;-74
2023/08/29 08:00:34;;;;;;;3.85;2.90;;;17.70;99.90;;;;;;4999966;28;37405;-74
2023/08/29 08:03:00;;;;;;;6.60;3.53;;;17.80;99.90;;;;;;5003987;28;39234;-72
2023/08/29 08:05:27;;;;;;;4.28;2.88;;;17.90;99.90;;;;;;5002431;28;37340;-72
2023/08/29 08:07:53;;;;;;;5.45;3.35;;;18.00;99.90;;;;;;5003245;28;37723;-72
2023/08/29 08:10:19;;;;;;;4.47;2.65;;;18.20;99.90;;;;;;5002622;28;36098;-73
2023/08/29 08:12:47;;;;;;;2.83;2.40;;;18.30;99.90;;;;;;5009174;28;38794;-73
2023/08/29 08:15:14;;;;;;;2.92;2.40;;;18.30;99.90;;;;;;5007724;28;37529;-72
2023/08/29 08:17:41;;;;;;;10.25;3.30;;;18.30;99.90;;;;;;5006414;28;38614;-72
2023/08/29 08:20:08;;;;;;;4.28;1.50;;;18.30;99.90;;;;;;5009754;28;36660;-79
2023/08/29 08:22:38;;;;;;;3.47;1.60;;;18.20;99.90;;;;;;5007481;28;41472;-81
2023/08/29 08:25:07;;;;;;;7.32;1.40;;;18.20;99.90;;;;;;5022757;28;39544;-77
2023/08/29 08:27:34;;;;;;;2.58;1.20;;;18.10;99.90;;;;;;5005096;28;37088;-72
2023/08/29 08:30:00;;;;;;;2.00;1.35;;;18.20;99.90;;;;;;5006679;28;38693;-72
2023/08/29 08:32:27;;;;;;;1.52;1.00;;;18.40;99.90;;;;;;5004842;28;39048;-72
2023/08/29 08:34:56;;;;;;;1.05;0.90;;;18.70;99.90;;;;;;5010926;28;39810;-72
2023/08/29 08:37:22;;;;;;;1.33;1.15;;;19.10;99.90;;;;;;5000758;28;38907;-72
2023/08/29 08:39:48;;;;;;;2.35;1.40;;;19.50;99.90;;;;;;5008048;28;37329;-72
2023/08/29 08:42:15;;;;;;;1.42;1.13;;;19.80;99.90;;;;;;5014008;28;38764;-72
2023/08/29 08:44:42;;;;;;;3.92;1.80;;;20.00;99.90;;;;;;5001323;28;38624;-72
2023/08/29 08:47:10;;;;;;;1.52;1.23;;;20.10;99.90;;;;;;5005724;28;38776;-72
2023/08/29 08:49:38;;;;;;;1.23;0.65;;;20.20;99.90;;;;;;5010646;28;36037;-73
2023/08/29 08:52:05;;;;;;;3.15;0.95;;;20.20;94.30;;;;;;5001114;28;38796;-73
2023/08/29 08:54:31;;;;;;;1.48;1.10;;;20.30;99.90;;;;;;5005898;28;39663;-73
2023/08/29 08:56:58;;;;;;;2.03;0.85;;;20.40;97.90;;;;;;5011722;28;37317;-73
2023/08/29 08:59:25;;;;;;;1.08;0.90;;;20.40;90.70;;;;;;5011372;28;36133;-73
2023/08/29 09:01:51;;;;;;;1.10;0.90;;;20.40;90.30;;;;;;5006251;28;38735;-74
2023/08/29 09:04:18;;;;;;;0.93;0.70;;;20.70;99.90;;;;;;5002356;28;38289;-74
2023/08/29 09:06:44;;;;;;;1.35;0.70;;;20.70;98.30;;;;;;5002921;28;38612;-74
2023/08/29 09:09:23;;;;;;;1.00;0.52;;;20.70;91.80;;;;;;5024032;28;35993;-73
2023/08/29 09:11:54;;;;;;;0.75;0.50;;;20.80;99.90;;;;;;5010287;28;38842;-73
2023/08/29 09:14:21;;;;;;;1.10;0.40;;;21.00;79.90;;;;;;5003398;28;38303;-74
2023/08/29 09:16:52;;;;;;;2.22;0.93;;;21.00;64.10;;;;;;5003971;28;36987;-74
2023/08/29 09:19:20;;;;;;;0.47;0.47;;;21.00;84.60;;;;;;5007540;28;36092;-74
2023/08/29 09:21:46;;;;;;;0.55;0.52;;;20.90;59.60;;;;;;5012971;28;38749;-74
2023/08/29 09:24:13;;;;;;;0.57;0.55;;;20.90;42.10;;;;;;5015559;28;39013;-73
2023/08/29 09:26:40;;;;;;;1.90;0.68;;;20.90;77.50;;;;;;5004563;28;37114;-74
2023/08/29 09:29:18;;;;;;;0.98;0.60;;;20.90;78.20;;;;;;5011747;28;36838;-73
2023/08/29 09:31:46;;;;;;;1.00;0.70;;;21.00;84.40;;;;;;5008676;28;40474;-74
2023/08/29 09:34:29;;;;;;;2.80;0.80;;;21.00;95.20;;;;;;5011827;28;38801;-73
2023/08/29 09:36:58;;;;;;;1.00;0.80;;;20.70;76.10;;;;;;5008879;28;37744;-73
2023/08/29 09:39:26;;;;;;;0.60;0.60;;;20.50;99.90;;;;;;5001526;28;36107;-71
2023/08/29 09:42:00;;;;;;;1.10;0.80;;;20.30;94.90;;;;;;5007018;28;38305;-72
2023/08/29 09:44:27;;;;;;;1.17;0.63;;;20.40;99.90;;;;;;5006277;28;38958;-72
2023/08/29 09:46:54;;;;;;;1.10;0.82;;;20.80;99.90;;;;;;5008609;28;36978;-72
2023/08/29 09:49:20;;;;;;;2.80;0.85;;;21.00;99.90;;;;;;5014214;28;36351;-72
2023/08/29 09:51:48;;;;;;;1.25;1.00;;;21.20;99.90;;;;;;5006414;28;39039;-71
2023/08/29 09:54:19;;;;;;;1.45;0.80;;;21.40;99.90;;;;;;5009143;28;37374;-73
2023/08/29 09:56:45;;;;;;;0.95;0.82;;;21.40;76.70;;;;;;5014392;28;38436;-72
2023/08/29 09:59:15;;;;;;;2.00;0.77;;;21.50;98.30;;;;;;5016241;28;36695;-73
2023/08/29 10:01:43;;;;;;;0.90;0.70;;;21.70;82.10;;;;;;5026225;28;37796;-73
2023/08/29 10:04:13;;;;;;;1.80;0.85;;;21.80;81.30;;;;;;5002430;28;37937;-73
2023/08/29 10:06:41;;;;;;;0.80;0.80;;;21.70;83.40;;;;;;5007257;28;39430;-74
2023/08/29 10:09:07;;;;;;;1.70;0.80;;;21.50;69.90;;;;;;5007458;28;37213;-74
2023/08/29 10:11:34;;;;;;;0.70;0.70;;;21.40;83.40;;;;;;5010393;28;40939;-74
2023/08/29 10:14:01;;;;;;;0.68;0.65;;;21.20;93.60;;;;;;5012247;28;38119;-74
2023/08/29 10:16:28;;;;;;;6.53;1.35;;;21.10;97.70;;;;;;5010583;28;47829;-74
2023/08/29 10:18:56;;;;;;;4.32;1.30;;;20.90;90.00;;;;;;5012645;28;37864;-75
2023/08/29 10:21:23;;;;;;;1.52;1.00;;;20.70;95.50;;;;;;5014104;28;39378;-75
2023/08/29 10:23:53;;;;;;;1.52;0.90;;;20.30;94.00;;;;;;5010311;28;38606;-73
2023/08/29 10:26:20;;;;;;;1.77;1.30;;;20.00;96.20;;;;;;5010743;28;37375;-72
2023/08/29 10:28:48;;;;;;;1.70;1.10;;;19.80;99.90;;;;;;5013534;28;36569;-73
2023/08/29 10:31:15;;;;;;;1.55;1.40;;;19.60;99.90;;;;;;5005735;28;37091;-72
2023/08/29 10:33:41;;;;;;;1.15;0.80;;;19.60;99.90;;;;;;5007056;28;38032;-73
2023/08/29 10:36:10;;;;;;;1.85;0.93;;;19.50;99.90;;;;;;5007200;28;37837;-71
2023/08/29 10:38:40;;;;;;;1.50;0.77;;;19.60;99.90;;;;;;5030786;28;35972;-72
2023/08/29 10:41:06;;;;;;;3.60;0.98;;;19.50;99.90;;;;;;5004345;28;37637;-73
2023/08/29 10:43:33;;;;;;;0.80;0.80;;;19.60;99.90;;;;;;5005658;28;39375;-72
2023/08/29 10:46:14;;;;;;;1.05;0.95;;;19.80;99.90;;;;;;5007231;28;37772;-74
2023/08/29 10:48:46;;;;;;;1.83;0.90;;;20.10;99.90;;;;;;5007486;28;46565;-73
2023/08/29 10:51:19;;;;;;;1.20;0.52;;;20.40;99.90;;;;;;5019552;28;37601;-73
2023/08/29 10:53:53;;;;;;;1.80;0.80;;;20.60;90.70;;;;;;5008636;28;38146;-73
2023/08/29 10:56:23;;;;;;;1.85;0.70;;;20.80;75.10;;;;;;5009527;28;38898;-74
2023/08/29 10:58:50;;;;;;;2.22;0.95;;;21.40;83.90;;;;;;5016737;28;36741;-74
2023/08/29 11:01:31;;;;;;;0.95;0.75;;;21.60;27.30;;;;;;5003580;28;39477;-73
2023/08/29 11:03:59;;;;;;;0.90;0.80;;;21.20;32.60;;;;;;5007924;28;37642;-73
2023/08/29 11:06:27;;;;;;;4.68;1.60;;;21.10;52.50;;;;;;5007585;28;38872;-74
2023/08/29 11:09:15;;;;;;;2.50;1.60;;;20.90;50.60;;;;;;5006601;28;37251;-78
2023/08/29 11:11:41;;;;;;;3.72;1.73;;;20.40;72.40;;;;;;5003515;28;47115;-72
2023/08/29 11:14:07;;;;;;;6.03;1.40;;;19.90;49.10;;;;;;5010095;28;38800;-73
2023/08/29 11:16:35;;;;;;;3.58;1.58;;;19.50;58.10;;;;;;5006238;28;38123;-73
2023/08/29 11:19:06;;;;;;;7.43;1.67;;;19.40;75.20;;;;;;5004972;28;35593;-73
2023/08/29 11:21:33;;;;;;;3.97;1.52;;;19.30;95.30;;;;;;5001543;28;47001;-72
2023/08/29 11:23:59;;;;;;;4.68;1.50;;;19.20;97.70;;;;;;5009764;28;37337;-72
2023/08/29 11:26:25;;;;;;;2.63;1.35;;;19.20;89.90;;;;;;5004689;28;38315;-70
2023/08/29 11:28:52;;;;;;;4.05;1.40;;;19.20;96.40;;;;;;5005621;28;36377;-71
2023/08/29 11:31:20;;;;;;;4.75;2.00;;;19.30;94.00;;;;;;5008956;28;37348;-71
2023/08/29 11:33:47;;;;;;;5.20;1.58;;;19.30;91.00;;;;;;5001855;28;36846;-72
2023/08/29 11:36:14;;;;;;;2.92;1.50;;;19.20;76.80;;;;;;5008000;28;39182;-71
2023/08/29 11:38:42;;;;;;;6.22;1.75;;;19.20;96.90;;;;;;5006118;28;37657;-71
2023/08/29 11:41:10;;;;;;;5.05;2.20;;;19.10;88.30;;;;;;5007068;28;37799;-72
2023/08/29 11:43:37;;;;;;;5.38;1.70;;;19.10;91.00;;;;;;5002406;28;37419;-72
2023/08/29 11:46:06;;;;;;;3.58;1.55;;;19.00;88.10;;;;;;5024004;28;37160;-71
2023/08/29 11:48:33;;;;;;;4.47;1.88;;;19.10;94.10;;;;;;5009043;28;37164;-72
2023/08/29 11:51:04;;;;;;;2.55;1.60;;;19.10;97.60;;;;;;5008145;28;37671;-73
2023/08/29 11:53:35;;;;;;;3.33;1.45;;;19.20;99.90;;;;;;5002546;28;47669;-72
2023/08/29 11:56:04;;;;;;;3.88;1.60;;;19.20;92.80;;;;;;5003228;28;36804;-71
2023/08/29 11:58:31;;;;;;;4.13;1.58;;;19.20;92.70;;;;;;5007374;28;47421;-71
2023/08/29 12:01:00;;;;;;;3.25;1.92;;;19.10;94.20;;;;;;5002004;28;38958;-71
2023/08/29 12:03:26;;;;;;;4.10;1.80;;;19.20;92.60;;;;;;5001501;28;38709;-71
2023/08/29 12:05:57;;;;;;;4.35;1.70;;;19.20;99.10;;;;;;5016022;28;39143;-72
2023/08/29 12:08:43;;;;;;;2.97;1.48;;;19.30;95.30;;;;;;5005167;28;37173;-71
2023/08/29 12:11:13;;;;;;;2.42;1.85;;;19.30;92.20;;;;;;5005178;28;40413;-72
2023/08/29 12:13:58;;;;;;;3.65;1.63;;;19.30;98.60;;;;;;5006336;28;20085;-70
2023/08/29 12:16:24;;;;;;;5.15;1.83;;;19.40;99.90;;;;;;5008326;28;37901;-72
2023/08/29 12:18:50;;;;;;;3.90;1.52;;;19.40;99.10;;;;;;5004115;28;37402;-71
2023/08/29 12:21:18;;;;;;;5.18;1.70;;;19.40;95.40;;;;;;5006467;28;39249;-72
2023/08/29 12:23:45;;;;;;;4.20;1.77;;;19.50;93.00;;;;;;5004034;28;38239;-72
2023/08/29 12:26:12;;;;;;;3.35;1.65;;;19.50;94.10;;;;;;5000049;28;37209;-72
2023/08/29 12:28:39;;;;;;;2.17;1.70;;;19.50;97.40;;;;;;5003401;28;37485;-72
2023/08/29 12:31:07;;;;;;;2.35;1.40;;;19.40;94.70;;;;;;5001630;28;39953;-72
2023/08/29 12:33:34;;;;;;;4.90;1.90;;;19.60;99.80;;;;;;4999019;28;37410;-73
2023/08/29 12:36:02;;;;;;;3.90;1.80;;;19.50;94.80;;;;;;5002662;28;37134;-71
2023/08/29 12:38:30;;;;;;;5.32;2.63;;;19.40;92.20;;;;;;5005769;28;47453;-71
2023/08/29 12:40:56;;;;;;;4.40;2.30;;;19.40;89.30;;;;;;4992842;28;39105;-72
2023/08/29 12:43:23;;;;;;;3.83;2.17;;;19.30;98.80;;;;;;5001594;28;38629;-71
2023/08/29 12:45:50;;;;;;;4.28;2.25;;;19.40;99.90;;;;;;5008683;28;40152;-72
2023/08/29 12:48:18;;;;;;;3.80;2.28;;;19.30;92.20;;;;;;5000384;28;37591;-72
2023/08/29 12:50:45;;;;;;;3.63;1.98;;;19.30;93.70;;;;;;5001141;28;38551;-73